Time;durP1;ratioP1;P1;durP2;ratioP2;P2;SDS_P1;SDS_P2;PMS_P1;PMS_P2;Temp;Humidity;BMP_temperature;BMP_pressure;BME280_temperature;BME280_humidity;BME280_pressure;Samples;Min_cycle;Max_cycle;Signal;HPM_P1;HPM_P2
2022/12/01 00:05:14;;;;;;;20.45;9.63;;;4.10;99.90;;;;;;20784117;28;20033;-45
2022/12/01 00:15:15;;;;;;;21.83;12.35;;;4.20;99.90;;;;;;20781004;28;20585;-44
2022/12/01 00:25:17;;;;;;;28.50;14.52;;;4.40;99.90;;;;;;20789414;28;20501;-44
2022/12/01 00:35:18;;;;;;;29.25;14.32;;;4.50;99.90;;;;;;20779618;28;20483;-43
2022/12/01 00:45:19;;;;;;;22.30;9.90;;;4.70;99.90;;;;;;20784422;28;20405;-42
2022/12/01 00:55:20;;;;;;;20.90;11.15;;;4.80;99.90;;;;;;20774562;28;20045;-42
2022/12/01 01:05:22;;;;;;;23.50;12.30;;;5.00;99.90;;;;;;20780883;28;20665;-42
2022/12/01 01:15:23;;;;;;;29.35;13.30;;;5.20;99.90;;;;;;20781618;28;20554;-42
2022/12/01 01:25:24;;;;;;;27.58;13.75;;;5.30;99.90;;;;;;20777413;28;20469;-42
2022/12/01 01:35:25;;;;;;;27.00;11.88;;;5.30;99.90;;;;;;20774524;28;20061;-43
2022/12/01 01:45:28;;;;;;;21.45;11.65;;;5.40;99.90;;;;;;20780319;28;20045;-42
2022/12/01 01:55:32;;;;;;;21.90;13.70;;;5.50;99.90;;;;;;20781846;28;20514;-42
2022/12/01 02:05:34;;;;;;;19.92;11.38;;;5.60;99.90;;;;;;20781884;28;20089;-43
2022/12/01 02:15:55;;;;;;;29.00;12.25;;;5.60;99.90;;;;;;20792093;28;20068;-41
2022/12/01 02:26:40;;;;;;;28.33;14.52;;;5.60;99.90;;;;;;20787593;28;21626;-44
2022/12/01 02:36:49;;;;;;;18.00;11.60;;;5.60;99.90;;;;;;20797385;28;20852;-42
2022/12/01 02:47:00;;;;;;;22.30;14.15;;;5.60;99.90;;;;;;20794096;28;21823;-43
2022/12/01 02:57:01;;;;;;;19.73;12.55;;;5.50;99.90;;;;;;20796542;28;20110;-42
2022/12/01 03:07:25;;;;;;;28.40;12.88;;;5.50;99.90;;;;;;20792178;28;20068;-43
2022/12/01 03:17:34;;;;;;;28.33;15.05;;;5.40;99.90;;;;;;20788776;28;20081;-43
2022/12/01 03:27:41;;;;;;;24.60;13.80;;;5.30;99.90;;;;;;20795902;28;20102;-43
2022/12/01 03:37:50;;;;;;;26.65;15.18;;;5.40;99.90;;;;;;20790402;28;21073;-42
2022/12/01 03:47:51;;;;;;;30.50;14.82;;;5.30;99.90;;;;;;20788831;28;20639;-42
2022/12/01 03:58:15;;;;;;;28.38;13.65;;;5.30;99.90;;;;;;20788114;28;20084;-41
2022/12/01 04:08:16;;;;;;;23.75;13.02;;;5.30;99.90;;;;;;20790924;28;20135;-42
2022/12/01 04:18:18;;;;;;;18.30;11.48;;;5.30;99.90;;;;;;20790735;28;20130;-41
2022/12/01 04:28:19;;;;;;;30.20;15.85;;;5.40;99.90;;;;;;20786191;28;20068;-42
2022/12/01 04:38:20;;;;;;;25.08;13.73;;;5.40;99.90;;;;;;20782852;28;20041;-42
2022/12/01 04:48:21;;;;;;;22.92;12.63;;;5.40;99.90;;;;;;20774431;28;20231;-42
2022/12/01 04:58:22;;;;;;;26.02;12.38;;;5.20;99.90;;;;;;20785386;28;20041;-42
2022/12/01 05:08:23;;;;;;;25.58;11.45;;;5.00;99.90;;;;;;20781644;28;20115;-42
2022/12/01 05:18:24;;;;;;;26.10;15.05;;;4.80;99.90;;;;;;20775270;28;20295;-42
2022/12/01 05:28:26;;;;;;;24.83;12.80;;;4.70;99.90;;;;;;20771686;28;20048;-42
2022/12/01 05:38:27;;;;;;;26.58;14.57;;;4.60;99.90;;;;;;20775190;28;20092;-42
2022/12/01 05:48:28;;;;;;;26.42;14.15;;;4.50;99.90;;;;;;20772976;28;20427;-45
2022/12/01 05:58:29;;;;;;;30.33;14.82;;;4.50;99.90;;;;;;20793153;28;20231;-44
2022/12/01 06:08:30;;;;;;;31.70;15.02;;;4.70;99.90;;;;;;20787644;28;20150;-44
2022/12/01 06:18:34;;;;;;;25.27;13.57;;;4.80;99.90;;;;;;20785887;28;20131;-44
2022/12/01 06:28:35;;;;;;;26.05;14.55;;;4.60;99.90;;;;;;20787733;28;20096;-44
2022/12/01 06:38:36;;;;;;;28.33;14.20;;;4.50;99.90;;;;;;20791134;28;20049;-45
2022/12/01 06:48:37;;;;;;;24.98;13.68;;;4.60;99.90;;;;;;20785731;28;20073;-44
2022/12/01 06:58:38;;;;;;;19.23;11.45;;;4.50;99.90;;;;;;20790191;28;20722;-45
2022/12/01 07:08:39;;;;;;;24.85;13.85;;;4.40;99.90;;;;;;20792271;28;20555;-44
2022/12/01 07:18:43;;;;;;;31.92;16.30;;;4.20;99.90;;;;;;20769057;28;20132;-45
2022/12/01 07:28:44;;;;;;;29.60;13.10;;;4.10;99.90;;;;;;20787794;28;20068;-44
2022/12/01 07:38:45;;;;;;;19.60;12.65;;;4.00;99.90;;;;;;20785728;28;20116;-44
2022/12/01 07:48:47;;;;;;;23.25;11.90;;;4.00;99.90;;;;;;20789943;28;20138;-45
2022/12/01 07:58:48;;;;;;;26.80;14.95;;;3.90;99.90;;;;;;20748878;28;20933;-44
2022/12/01 08:08:49;;;;;;;27.33;14.15;;;4.00;99.90;;;;;;20762951;28;20665;-44
2022/12/01 08:18:51;;;;;;;33.78;18.38;;;4.20;99.90;;;;;;20760207;28;20041;-44
2022/12/01 08:28:52;;;;;;;33.25;15.30;;;4.40;99.90;;;;;;20780097;28;20560;-44
2022/12/01 08:38:54;;;;;;;35.13;15.30;;;4.70;99.90;;;;;;20801718;28;20544;-44
2022/12/01 08:48:56;;;;;;;22.55;13.70;;;5.00;99.90;;;;;;20818550;28;20115;-44
2022/12/01 08:58:57;;;;;;;38.50;17.90;;;5.30;99.90;;;;;;20783033;28;20037;-44
2022/12/01 09:08:59;;;;;;;22.17;13.50;;;5.40;99.90;;;;;;20688878;28;20466;-45
2022/12/01 09:19:01;;;;;;;27.60;14.93;;;5.60;99.90;;;;;;20773502;28;22239;-42
2022/12/01 09:29:05;;;;;;;26.35;14.43;;;5.80;99.90;;;;;;20792305;28;20064;-43
2022/12/01 09:39:11;;;;;;;32.40;15.55;;;6.10;99.90;;;;;;20807499;28;20389;-42
2022/12/01 09:49:50;;;;;;;27.65;15.00;;;6.10;99.90;;;;;;20802799;28;20378;-45
2022/12/01 09:59:52;;;;;;;36.00;17.08;;;6.30;99.90;;;;;;20771438;28;21896;-45
2022/12/01 10:10:01;;;;;;;26.13;14.55;;;6.40;99.90;;;;;;20774177;28;20536;-44
2022/12/01 10:20:13;;;;;;;33.40;16.58;;;6.60;99.90;;;;;;20769239;28;20136;-44
2022/12/01 10:30:17;;;;;;;38.83;14.88;;;6.80;99.90;;;;;;20787205;28;20120;-45
2022/12/01 10:40:18;;;;;;;29.40;14.55;;;7.20;99.90;;;;;;20808641;28;20875;-45
2022/12/01 10:50:27;;;;;;;19.15;9.02;;;7.20;99.90;;;;;;20799494;28;20132;-44
2022/12/01 11:00:33;;;;;;;16.23;9.48;;;7.40;99.90;;;;;;20789501;28;20568;-45
2022/12/01 11:10:37;;;;;;;25.60;11.75;;;8.00;99.90;;;;;;20799292;28;20172;-44
2022/12/01 11:20:39;;;;;;;24.90;11.38;;;8.60;99.90;;;;;;20788120;28;20132;-45
2022/12/01 11:30:40;;;;;;;15.95;8.40;;;8.60;99.90;;;;;;20822014;28;20905;-45
2022/12/01 11:40:53;;;;;;;16.65;9.40;;;8.80;99.90;;;;;;20823546;28;20037;-45
2022/12/01 11:51:05;;;;;;;31.02;10.20;;;9.00;99.90;;;;;;20818545;28;20810;-46
2022/12/01 12:01:34;;;;;;;17.92;8.82;;;9.10;99.90;;;;;;20798490;28;22093;-45
2022/12/01 12:11:48;;;;;;;15.50;7.90;;;8.80;99.90;;;;;;20780268;28;20144;-44
2022/12/01 12:22:17;;;;;;;20.15;8.63;;;8.10;99.90;;;;;;20789819;28;20842;-45
2022/12/01 12:32:36;;;;;;;13.73;8.35;;;8.20;99.90;;;;;;20804017;28;20199;-42
2022/12/01 12:42:45;;;;;;;26.50;13.27;;;8.30;99.90;;;;;;20806733;28;20528;-45
2022/12/01 12:52:55;;;;;;;30.85;11.88;;;8.50;99.90;;;;;;20774959;28;21894;-45
2022/12/01 13:03:11;;;;;;;21.63;11.10;;;9.00;99.90;;;;;;20765337;28;20964;-45
2022/12/01 13:13:30;;;;;;;14.45;8.90;;;8.40;99.90;;;;;;20808141;28;20057;-45
2022/12/01 13:23:32;;;;;;;19.17;8.02;;;8.00;99.90;;;;;;20797126;28;20540;-45
2022/12/01 13:33:35;;;;;;;28.25;16.17;;;7.60;99.90;;;;;;20789264;28;20502;-44
2022/12/01 13:43:44;;;;;;;16.00;8.10;;;7.60;99.90;;;;;;20810542;28;20099;-44
2022/12/01 13:54:02;;;;;;;17.48;10.35;;;7.70;99.90;;;;;;20812675;28;20629;-45
2022/12/01 14:04:15;;;;;;;15.83;9.23;;;7.60;99.90;;;;;;20813817;28;20701;-45
2022/12/01 14:14:23;;;;;;;25.23;13.75;;;7.60;99.90;;;;;;20818629;28;20052;-44
2022/12/01 14:24:33;;;;;;;23.55;12.45;;;7.50;99.90;;;;;;20836670;28;20184;-45
2022/12/01 14:34:35;;;;;;;18.25;9.07;;;7.40;99.90;;;;;;20814783;28;20187;-45
2022/12/01 14:44:46;;;;;;;23.30;10.13;;;7.30;99.90;;;;;;20809108;28;20389;-45
2022/12/01 14:54:48;;;;;;;19.92;8.60;;;7.20;99.90;;;;;;20797179;28;20654;-45
2022/12/01 15:05:09;;;;;;;10.88;6.78;;;7.00;99.90;;;;;;20816058;28;20818;-45
2022/12/01 15:15:28;;;;;;;14.68;8.75;;;6.90;99.90;;;;;;20817457;28;20127;-45
2022/12/01 15:25:34;;;;;;;19.38;6.85;;;6.70;99.90;;;;;;20796561;28;20049;-45
2022/12/01 15:35:35;;;;;;;15.88;7.97;;;6.50;99.90;;;;;;20805569;28;20116;-45
2022/12/01 15:45:54;;;;;;;16.33;7.50;;;6.30;99.90;;;;;;20790710;28;20033;-45
2022/12/01 15:55:56;;;;;;;12.45;7.07;;;6.10;99.90;;;;;;20794239;28;20114;-45
2022/12/01 16:05:57;;;;;;;33.20;16.80;;;5.90;99.90;;;;;;20673003;28;20057;-45
2022/12/01 16:15:59;;;;;;;19.05;11.05;;;5.80;99.90;;;;;;20767627;28;20542;-44
2022/12/01 16:26:06;;;;;;;16.67;9.38;;;5.60;99.90;;;;;;20776928;28;20292;-45
2022/12/01 16:36:07;;;;;;;18.17;8.88;;;5.40;99.90;;;;;;20787764;28;20049;-44
2022/12/01 16:46:11;;;;;;;18.45;7.70;;;5.10;99.90;;;;;;20802849;28;20075;-44
2022/12/01 16:56:13;;;;;;;12.98;7.78;;;4.90;99.90;;;;;;20789627;28;20107;-45
2022/12/01 17:06:17;;;;;;;23.67;9.20;;;4.80;99.90;;;;;;20811762;28;20029;-44
2022/12/01 17:16:18;;;;;;;17.55;7.68;;;4.70;99.90;;;;;;20792209;28;20099;-45
2022/12/01 17:26:20;;;;;;;18.15;6.72;;;4.50;99.90;;;;;;20779754;28;20030;-45
2022/12/01 17:36:21;;;;;;;13.15;7.38;;;4.40;99.90;;;;;;20790482;28;20238;-45
2022/12/01 17:46:22;;;;;;;11.65;6.78;;;4.30;99.90;;;;;;20797244;28;20041;-45
2022/12/01 17:56:23;;;;;;;19.73;8.05;;;4.10;99.90;;;;;;20801471;28;20056;-45
2022/12/01 18:06:25;;;;;;;11.57;6.80;;;4.10;99.90;;;;;;20790390;28;20033;-44
2022/12/01 18:16:31;;;;;;;16.95;6.65;;;3.90;99.90;;;;;;20792554;28;20538;-44
2022/12/01 18:26:32;;;;;;;8.93;6.25;;;3.90;99.90;;;;;;20785926;28;20495;-44
2022/12/01 18:36:36;;;;;;;10.23;5.47;;;3.80;99.90;;;;;;20774363;28;20049;-45
2022/12/01 18:46:37;;;;;;;12.75;6.38;;;3.70;99.90;;;;;;20770314;28;20115;-45
2022/12/01 18:56:38;;;;;;;11.13;7.25;;;3.60;99.90;;;;;;20779019;28;20072;-44
2022/12/01 19:06:40;;;;;;;18.67;8.93;;;3.60;99.90;;;;;;20793943;28;21852;-44
2022/12/01 19:16:42;;;;;;;16.77;8.68;;;3.50;99.90;;;;;;20790774;28;20069;-45
2022/12/01 19:26:43;;;;;;;18.35;9.40;;;3.40;99.90;;;;;;20793833;28;20045;-45
2022/12/01 19:36:44;;;;;;;24.05;9.13;;;3.40;99.90;;;;;;20795570;28;20111;-45
2022/12/01 19:46:45;;;;;;;16.27;9.65;;;3.30;99.90;;;;;;20799036;28;20079;-45
2022/12/01 19:56:47;;;;;;;16.15;9.55;;;3.20;99.90;;;;;;20800281;28;20133;-44
2022/12/01 20:06:48;;;;;;;13.93;7.55;;;3.20;99.90;;;;;;20797341;28;21961;-45
2022/12/01 20:16:49;;;;;;;24.00;9.82;;;3.30;99.90;;;;;;20802086;28;20077;-44
2022/12/01 20:26:52;;;;;;;16.90;8.90;;;3.40;99.90;;;;;;20792968;28;20048;-45
2022/12/01 20:36:54;;;;;;;20.23;9.77;;;3.50;99.90;;;;;;20799634;28;20557;-44
2022/12/01 20:46:55;;;;;;;15.18;8.88;;;3.60;99.90;;;;;;20797261;28;20153;-44
2022/12/01 20:56:57;;;;;;;15.70;9.85;;;3.80;99.90;;;;;;20790396;28;20146;-45
2022/12/01 21:06:59;;;;;;;15.95;8.98;;;3.90;99.90;;;;;;20776447;28;20076;-44
2022/12/01 21:17:09;;;;;;;21.40;10.90;;;4.10;99.90;;;;;;20794548;28;20151;-44
2022/12/01 21:27:13;;;;;;;19.42;9.52;;;4.20;99.90;;;;;;20785185;28;20087;-44
2022/12/01 21:37:23;;;;;;;15.10;9.27;;;4.30;99.90;;;;;;20764684;28;20057;-45
2022/12/01 21:47:29;;;;;;;16.73;9.77;;;4.40;99.90;;;;;;20791946;28;20129;-44
2022/12/01 21:57:40;;;;;;;25.30;12.02;;;4.40;99.90;;;;;;20779484;28;20167;-45
2022/12/01 22:07:41;;;;;;;22.67;12.40;;;4.40;99.90;;;;;;20796032;28;20201;-44
2022/12/01 22:17:42;;;;;;;19.52;12.23;;;4.50;99.90;;;;;;20795592;28;20052;-45
2022/12/01 22:27:43;;;;;;;17.67;12.40;;;4.50;99.90;;;;;;20793135;28;20151;-45
2022/12/01 22:37:52;;;;;;;23.92;11.52;;;4.60;99.90;;;;;;20804630;28;20052;-45
2022/12/01 22:47:59;;;;;;;21.35;10.80;;;4.60;99.90;;;;;;20802515;28;20602;-45
2022/12/01 22:58:01;;;;;;;17.55;10.70;;;4.60;99.90;;;;;;20807582;28;20333;-45
2022/12/01 23:08:09;;;;;;;16.85;8.90;;;4.60;99.90;;;;;;20807873;28;20060;-45
2022/12/01 23:18:14;;;;;;;28.85;11.00;;;4.60;99.90;;;;;;20794041;28;20046;-44
2022/12/01 23:28:16;;;;;;;19.63;11.23;;;4.70;99.90;;;;;;20782794;28;20570;-45
2022/12/01 23:38:23;;;;;;;17.30;10.80;;;4.80;99.90;;;;;;20777998;28;20114;-45
2022/12/01 23:48:27;;;;;;;;;;;4.80;99.90;;;;;;20785376;28;20484;-45
2022/12/01 23:58:28;;;;;;;27.17;13.75;;;4.80;99.90;;;;;;20779070;28;20013;-44
